Time;durP1;ratioP1;P1;durP2;ratioP2;P2;SDS_P1;SDS_P2;PMS_P1;PMS_P2;Temp;Humidity;BMP_temperature;BMP_pressure;BME280_temperature;BME280_humidity;BME280_pressure;Samples;Min_cycle;Max_cycle;Signal;HPM_P1;HPM_P2
2020/12/05 00:02:18;;;;;;;46.78;24.95;;;;;;;7.19;81.99;99607.81;5138661;27;20019;-63
2020/12/05 00:04:44;;;;;;;47.30;24.30;;;;;;;7.27;82.23;99608.59;5139347;27;20026;-68
2020/12/05 00:07:10;;;;;;;48.05;26.38;;;;;;;7.24;82.26;99603.81;5138763;27;20031;-68
2020/12/05 00:09:36;;;;;;;45.60;24.15;;;;;;;7.22;82.06;99600.63;5138730;27;20047;-67
2020/12/05 00:12:11;;;;;;;44.25;23.38;;;;;;;7.23;81.99;99610.59;5138654;27;20015;-68
2020/12/05 00:14:36;;;;;;;45.40;25.35;;;;;;;7.20;82.21;99615.00;5120455;27;20025;-64
2020/12/05 00:17:03;;;;;;;43.35;23.90;;;;;;;7.24;82.04;99606.59;5135815;27;20098;-67
2020/12/05 00:19:28;;;;;;;48.17;24.67;;;;;;;7.24;82.31;99621.38;5120468;27;20049;-67
2020/12/05 00:21:55;;;;;;;50.65;24.42;;;;;;;7.25;81.90;99631.34;5138618;27;20011;-67
2020/12/05 00:24:21;;;;;;;46.75;24.60;;;;;;;7.23;82.57;99619.78;5138397;27;20019;-67
2020/12/05 00:26:51;;;;;;;50.05;25.13;;;;;;;7.22;82.28;99631.34;5138545;27;20295;-67
2020/12/05 00:29:16;;;;;;;47.58;24.48;;;;;;;7.21;82.45;99618.59;5138165;27;20031;-68
2020/12/05 00:31:42;;;;;;;46.95;24.27;;;;;;;7.20;82.74;99626.16;5138290;27;20027;-68
2020/12/05 00:34:07;;;;;;;44.97;23.88;;;;;;;7.25;82.21;99624.97;5138485;27;20027;-67
2020/12/05 00:36:33;;;;;;;43.17;23.75;;;;;;;7.24;82.47;99621.38;5138499;27;20019;-68
2020/12/05 00:38:58;;;;;;;44.10;23.40;;;;;;;7.26;82.53;99618.19;5138064;27;20042;-67
2020/12/05 00:41:23;;;;;;;43.50;22.67;;;;;;;7.29;82.57;99634.94;5138170;27;20711;-68
2020/12/05 00:43:49;;;;;;;42.42;22.85;;;;;;;7.30;82.45;99630.16;5119791;27;20027;-67
2020/12/05 00:46:14;;;;;;;44.92;22.80;;;;;;;7.31;83.05;99626.16;5137780;27;20026;-68
2020/12/05 00:48:39;;;;;;;47.97;24.13;;;;;;;7.26;82.86;99629.38;5138195;27;20023;-68
2020/12/05 00:51:05;;;;;;;43.33;23.13;;;;;;;7.26;82.85;99624.56;5138045;27;20407;-68
2020/12/05 00:53:31;;;;;;;40.55;21.27;;;;;;;7.25;83.42;99620.19;5138126;27;20445;-67
2020/12/05 00:55:56;;;;;;;42.38;23.98;;;;;;;7.23;83.92;99613.41;5137767;27;20026;-69
2020/12/05 00:58:21;;;;;;;42.05;23.30;;;;;;;7.24;83.79;99621.38;5119260;27;20310;-67
2020/12/05 01:00:47;;;;;;;48.72;23.67;;;;;;;7.25;83.76;99628.56;5137997;27;20049;-63
2020/12/05 01:03:12;;;;;;;44.03;23.75;;;;;;;7.33;83.48;99646.13;5137566;27;20015;-66
2020/12/05 01:05:38;;;;;;;43.28;24.20;;;;;;;7.30;83.21;99641.34;5137894;27;20019;-67
2020/12/05 01:08:05;;;;;;;42.10;23.23;;;;;;;7.28;83.37;99638.16;5137607;27;20019;-69
2020/12/05 01:10:31;;;;;;;49.28;24.35;;;;;;;7.26;83.63;99640.53;5137364;27;20018;-67
2020/12/05 01:12:56;;;;;;;40.78;22.90;;;;;;;7.26;83.50;99646.94;5137488;27;20019;-68
2020/12/05 01:15:21;;;;;;;42.15;22.33;;;;;;;7.28;83.86;99644.53;5137415;27;20420;-66
2020/12/05 01:17:47;;;;;;;42.20;22.10;;;;;;;7.27;83.80;99656.13;5137598;27;20030;-67
2020/12/05 01:20:12;;;;;;;40.72;22.92;;;;;;;7.25;83.50;99633.34;5137261;27;20031;-68
2020/12/05 01:22:38;;;;;;;39.80;20.95;;;;;;;7.25;83.67;99634.16;5137589;27;20463;-68
2020/12/05 01:25:04;;;;;;;47.97;24.40;;;;;;;7.28;84.01;99632.56;5137479;27;20038;-68
2020/12/05 01:27:29;;;;;;;42.53;22.83;;;;;;;7.33;83.82;99651.72;5118484;27;20019;-67
2020/12/05 01:29:55;;;;;;;40.40;22.70;;;;;;;7.29;83.83;99650.94;5137467;27;20453;-67
2020/12/05 01:32:20;;;;;;;38.15;21.27;;;;;;;7.28;83.51;99633.34;5118864;27;20015;-67
2020/12/05 01:34:45;;;;;;;41.03;22.77;;;;;;;7.26;84.11;99624.56;5137134;27;20011;-68
2020/12/05 01:37:11;;;;;;;39.08;21.90;;;;;;;7.29;83.91;99628.56;5137121;27;20030;-68
2020/12/05 01:39:37;;;;;;;40.60;22.98;;;;;;;7.22;83.94;99626.56;5137184;27;20052;-68
2020/12/05 01:42:03;;;;;;;43.63;22.75;;;;;;;7.21;83.97;99621.38;5136721;27;20064;-67
2020/12/05 01:44:30;;;;;;;41.88;22.98;;;;;;;7.19;84.56;99620.97;5118675;27;20011;-67
2020/12/05 01:46:56;;;;;;;41.25;21.35;;;;;;;7.17;84.48;99620.59;5136992;27;20410;-68
2020/12/05 01:49:22;;;;;;;34.47;20.65;;;;;;;7.18;84.41;99622.19;5136964;27;20033;-67
2020/12/05 01:51:48;;;;;;;38.70;22.05;;;;;;;7.20;84.11;99619.78;5136172;27;20042;-67
2020/12/05 01:54:14;;;;;;;41.55;21.63;;;;;;;7.21;84.67;99618.59;5136751;27;20127;-67
2020/12/05 01:56:43;;;;;;;40.80;21.83;;;;;;;7.30;84.52;99621.78;5136453;27;20030;-67
2020/12/05 01:59:09;;;;;;;38.97;21.15;;;;;;;7.26;84.73;99632.16;5118495;27;20121;-67
2020/12/05 02:01:35;;;;;;;39.78;22.20;;;;;;;7.24;84.29;99628.97;5118581;27;20137;-67
2020/12/05 02:04:02;;;;;;;39.33;23.17;;;;;;;7.30;84.37;99630.16;5136752;27;20031;-67
2020/12/05 02:06:52;;;;;;;38.38;21.52;;;;;;;7.26;85.07;99624.56;5136247;27;20097;-67
2020/12/05 02:09:36;;;;;;;51.40;28.08;;;;;;;7.30;84.63;99627.38;5135267;27;20139;-66
2020/12/05 02:12:11;;;;;;;44.17;24.33;;;;;;;7.31;85.14;99632.56;5135929;27;20023;-68
2020/12/05 02:14:39;;;;;;;43.92;22.80;;;;;;;7.33;85.16;99626.56;5136631;27;20110;-68
2020/12/05 02:17:05;;;;;;;44.53;24.00;;;;;;;7.33;84.79;99618.19;5136271;27;20027;-67
2020/12/05 02:19:47;;;;;;;42.75;22.95;;;;;;;7.35;85.19;99626.97;5137460;27;20025;-64
2020/12/05 02:22:18;;;;;;;40.53;23.52;;;;;;;7.38;85.38;99624.16;5134957;27;20102;-67
2020/12/05 02:24:45;;;;;;;36.43;20.77;;;;;;;7.39;84.96;99617.38;5136152;27;20429;-67
2020/12/05 02:27:11;;;;;;;41.40;21.77;;;;;;;7.41;84.86;99614.19;5135771;27;20523;-68
2020/12/05 02:29:37;;;;;;;41.65;23.00;;;;;;;7.51;84.72;99612.59;5117927;27;20029;-67
2020/12/05 02:32:03;;;;;;;44.47;24.13;;;;;;;7.51;84.89;99627.38;5135527;27;20102;-69
2020/12/05 02:34:30;;;;;;;41.50;22.23;;;;;;;7.52;85.02;99608.59;5138938;27;20425;-67
2020/12/05 02:37:00;;;;;;;39.83;21.15;;;;;;;7.53;84.83;99624.97;5117629;27;20019;-65
2020/12/05 02:39:26;;;;;;;42.17;22.23;;;;;;;7.55;84.73;99624.56;5136013;27;20042;-66
2020/12/05 02:41:52;;;;;;;41.35;22.15;;;;;;;7.56;85.35;99638.13;5135753;27;20044;-67
2020/12/05 02:44:18;;;;;;;40.55;22.45;;;;;;;7.54;84.92;99618.16;5135876;27;20035;-66
2020/12/05 02:46:48;;;;;;;45.92;23.25;;;;;;;7.59;85.15;99620.56;5135845;27;20050;-67
2020/12/05 02:49:13;;;;;;;43.13;22.73;;;;;;;7.60;84.66;99621.34;5117929;27;20023;-67
2020/12/05 02:51:40;;;;;;;40.95;22.17;;;;;;;7.57;84.88;99625.75;5136192;27;20038;-61
2020/12/05 02:54:06;;;;;;;40.70;21.95;;;;;;;7.60;84.86;99627.75;5135466;27;20093;-61
2020/12/05 02:56:31;;;;;;;42.65;21.88;;;;;;;7.59;84.49;99626.16;5135720;27;20140;-61
2020/12/05 02:58:57;;;;;;;44.67;23.25;;;;;;;7.66;84.17;99628.13;5135657;28;20019;-62
2020/12/05 03:01:22;;;;;;;40.05;22.85;;;;;;;7.70;84.49;99632.56;5135894;28;20027;-61
2020/12/05 03:03:48;;;;;;;41.38;21.92;;;;;;;7.77;84.18;99633.72;5139342;27;20011;-62
2020/12/05 03:06:13;;;;;;;40.97;21.75;;;;;;;7.73;84.37;99628.94;5140044;27;20034;-62
2020/12/05 03:08:38;;;;;;;43.58;22.50;;;;;;;7.73;84.21;99626.16;5139759;27;20070;-63
2020/12/05 03:11:04;;;;;;;47.20;23.55;;;;;;;7.72;84.09;99632.94;5139999;27;20033;-60
2020/12/05 03:13:29;;;;;;;41.25;22.05;;;;;;;7.70;84.11;99638.13;5139949;27;20061;-61
2020/12/05 03:15:54;;;;;;;46.63;25.15;;;;;;;7.73;84.00;99642.13;5139699;27;20030;-61
2020/12/05 03:18:20;;;;;;;45.80;23.33;;;;;;;7.72;84.14;99652.53;5139870;27;20023;-64
2020/12/05 03:20:45;;;;;;;41.08;23.02;;;;;;;7.71;84.66;99653.72;5139779;27;20019;-62
2020/12/05 03:23:11;;;;;;;38.70;21.65;;;;;;;7.77;83.84;99651.31;5139420;27;20414;-68
2020/12/05 03:25:36;;;;;;;38.70;22.20;;;;;;;7.79;84.42;99662.09;5139785;27;20051;-67
2020/12/05 03:28:02;;;;;;;41.90;22.48;;;;;;;7.77;84.47;99654.13;5139530;27;20051;-68
2020/12/05 03:30:27;;;;;;;38.78;21.92;;;;;;;7.81;84.34;99657.69;5139173;27;20054;-68
2020/12/05 03:32:53;;;;;;;43.70;22.67;;;;;;;7.81;83.99;99654.91;5139602;27;20027;-68
2020/12/05 03:35:18;;;;;;;40.70;22.08;;;;;;;7.79;84.49;99662.09;5139540;27;20027;-68
2020/12/05 03:37:43;;;;;;;41.90;22.73;;;;;;;7.83;84.00;99666.50;5139389;27;20019;-67
2020/12/05 03:40:09;;;;;;;49.28;24.45;;;;;;;7.87;84.11;99677.66;5138979;27;20034;-67
2020/12/05 03:42:38;;;;;;;36.13;21.35;;;;;;;7.88;83.60;99670.88;5139396;27;20011;-66
2020/12/05 03:45:03;;;;;;;47.38;23.63;;;;;;;7.87;83.59;99669.28;5139465;27;20069;-67
2020/12/05 03:47:29;;;;;;;44.13;22.83;;;;;;;7.96;83.39;99683.66;5139021;27;20422;-68
2020/12/05 03:49:54;;;;;;;49.20;24.95;;;;;;;7.91;83.36;99668.06;5139304;27;20022;-68
2020/12/05 03:52:19;;;;;;;48.83;24.95;;;;;;;7.93;83.56;99670.47;5138939;27;20334;-67
2020/12/05 03:54:45;;;;;;;52.42;27.35;;;;;;;7.88;83.72;99677.25;5139081;27;20062;-67
2020/12/05 03:57:10;;;;;;;48.58;24.52;;;;;;;7.87;84.16;99675.66;5138910;27;20023;-68
2020/12/05 03:59:36;;;;;;;47.97;23.95;;;;;;;7.89;84.00;99683.66;5121098;27;20038;-66
2020/12/05 04:02:01;;;;;;;42.72;24.63;;;;;;;7.87;83.92;99677.66;5141675;27;20102;-68
2020/12/05 04:04:26;;;;;;;50.10;27.83;;;;;;;7.88;83.59;99679.25;5138894;27;20026;-67
2020/12/05 04:06:52;;;;;;;56.10;25.98;;;;;;;7.86;83.46;99674.06;5138709;27;20031;-68
2020/12/05 04:09:17;;;;;;;49.28;25.00;;;;;;;7.85;83.73;99682.88;5120370;27;20058;-68
2020/12/05 04:11:43;;;;;;;55.08;25.40;;;;;;;7.85;83.54;99671.69;5138796;27;20322;-67
2020/12/05 04:14:10;;;;;;;42.70;23.48;;;;;;;7.85;83.96;99668.88;5137987;27;20023;-68
2020/12/05 04:16:36;;;;;;;46.20;24.92;;;;;;;7.84;83.89;99681.28;5138895;27;20015;-66
2020/12/05 04:19:02;;;;;;;38.85;22.48;;;;;;;7.86;83.91;99670.47;5138560;27;20018;-68
2020/12/05 04:21:27;;;;;;;43.80;22.95;;;;;;;7.84;83.73;99678.47;5138463;27;20019;-69
2020/12/05 04:23:56;;;;;;;48.05;23.58;;;;;;;7.84;83.94;99672.88;5138582;27;20094;-68
2020/12/05 04:26:22;;;;;;;42.25;22.75;;;;;;;7.80;83.75;99674.88;5138265;27;20019;-67
2020/12/05 04:28:48;;;;;;;51.78;26.25;;;;;;;7.78;83.92;99682.88;5120299;27;20330;-68
2020/12/05 04:31:13;;;;;;;44.13;25.35;;;;;;;7.78;84.10;99680.09;5138394;27;20033;-67
2020/12/05 04:33:39;;;;;;;52.05;25.02;;;;;;;7.73;83.96;99682.09;5138529;27;20026;-68
2020/12/05 04:36:04;;;;;;;52.60;24.92;;;;;;;7.81;84.10;99687.69;5138313;27;20054;-69
2020/12/05 04:38:30;;;;;;;44.75;24.15;;;;;;;7.80;83.81;99691.69;5138228;27;20050;-67
2020/12/05 04:40:57;;;;;;;43.17;22.75;;;;;;;7.78;84.32;99688.47;5138308;27;20011;-68
2020/12/05 04:43:23;;;;;;;44.55;23.23;;;;;;;7.76;84.13;99702.88;5137970;27;20021;-68
2020/12/05 04:45:50;;;;;;;43.92;23.73;;;;;;;7.76;84.40;99702.88;5138194;27;20106;-68
2020/12/05 04:48:16;;;;;;;52.90;26.20;;;;;;;7.79;83.80;99701.25;5138014;27;20444;-68
2020/12/05 04:50:44;;;;;;;43.60;23.95;;;;;;;7.78;83.79;99705.25;5137946;27;20084;-68
2020/12/05 04:53:18;;;;;;;44.10;23.95;;;;;;;7.78;84.05;99708.06;5119692;27;20011;-68
2020/12/05 04:55:44;;;;;;;42.92;22.20;;;;;;;7.81;83.63;99704.47;5137885;27;20023;-68
2020/12/05 04:58:21;;;;;;;44.47;24.90;;;;;;;7.79;83.79;99709.66;5137984;27;20027;-68
2020/12/05 05:00:51;;;;;;;43.17;24.17;;;;;;;7.75;84.19;99713.25;5118962;27;20130;-69
2020/12/05 05:03:22;;;;;;;42.78;23.42;;;;;;;7.74;83.74;99722.84;5138017;27;20026;-67
2020/12/05 05:05:48;;;;;;;52.47;25.25;;;;;;;7.72;83.75;99730.84;5137954;27;20019;-67
2020/12/05 05:08:15;;;;;;;43.35;23.08;;;;;;;7.71;84.07;99717.25;5137584;27;20023;-67
2020/12/05 05:10:41;;;;;;;41.83;22.50;;;;;;;7.73;83.67;99732.44;5137445;27;20019;-67
2020/12/05 05:13:20;;;;;;;42.88;23.10;;;;;;;7.75;83.78;99730.03;5119489;27;20087;-66
2020/12/05 05:15:46;;;;;;;44.20;23.13;;;;;;;7.77;83.84;99737.25;5137540;27;20015;-67
2020/12/05 05:18:12;;;;;;;37.97;20.33;;;;;;;7.79;83.82;99734.84;5137507;27;20027;-66
2020/12/05 05:20:43;;;;;;;41.72;22.20;;;;;;;7.77;83.24;99726.03;5137273;27;20015;-68
2020/12/05 05:23:11;;;;;;;41.80;21.20;;;;;;;7.80;83.73;99728.84;5137475;27;20090;-67
2020/12/05 05:26:06;;;;;;;39.88;22.60;;;;;;;7.79;83.25;99729.25;5136507;27;20019;-67
2020/12/05 05:28:33;;;;;;;44.05;24.42;;;;;;;7.76;83.70;99739.22;5137220;27;20031;-67
2020/12/05 05:31:21;;;;;;;52.08;26.63;;;;;;;7.75;83.55;99741.22;5119300;27;20038;-69
2020/12/05 05:33:48;;;;;;;44.58;22.60;;;;;;;7.74;83.10;99734.03;5136044;27;20034;-67
2020/12/05 05:36:15;;;;;;;37.83;21.33;;;;;;;7.77;83.74;99745.63;5136991;27;20026;-68
2020/12/05 05:38:42;;;;;;;45.28;23.00;;;;;;;7.75;83.48;99746.84;5137307;27;20015;-66
2020/12/05 05:41:14;;;;;;;40.75;21.13;;;;;;;7.77;83.07;99754.03;5137075;27;20029;-65
2020/12/05 05:43:51;;;;;;;42.30;21.90;;;;;;;7.77;83.08;99754.81;5136992;27;20019;-68
2020/12/05 05:46:23;;;;;;;43.47;22.27;;;;;;;7.74;83.51;99750.03;5136878;27;20410;-67
2020/12/05 05:48:50;;;;;;;44.17;21.60;;;;;;;7.71;83.14;99754.44;5136855;27;20019;-68
2020/12/05 05:51:15;;;;;;;35.85;20.70;;;;;;;7.68;83.75;99758.03;5139875;27;20136;-67
2020/12/05 05:53:41;;;;;;;44.13;21.75;;;;;;;7.70;83.02;99761.22;5136482;27;20105;-68
2020/12/05 05:56:11;;;;;;;35.22;21.42;;;;;;;7.70;83.75;99764.00;5136940;27;20037;-67
2020/12/05 05:58:37;;;;;;;35.08;20.50;;;;;;;7.77;82.90;99770.81;5118637;27;20692;-68
2020/12/05 06:01:02;;;;;;;37.55;20.65;;;;;;;7.75;82.75;99771.22;5118497;27;20094;-68
2020/12/05 06:03:28;;;;;;;35.17;20.27;;;;;;;7.69;83.02;99770.81;5136339;27;20011;-63
2020/12/05 06:05:58;;;;;;;37.58;20.70;;;;;;;7.72;83.59;99770.00;5136912;27;20034;-68
2020/12/05 06:08:25;;;;;;;39.88;22.40;;;;;;;7.81;82.74;99780.00;5136506;27;20039;-68
2020/12/05 06:10:57;;;;;;;41.65;21.13;;;;;;;7.78;82.76;99769.59;5136331;27;20030;-67
2020/12/05 06:13:26;;;;;;;;;;;;;;;7.79;82.82;99780.41;5136830;27;20106;-68
2020/12/05 06:15:53;;;;;;;32.85;18.75;;;;;;;7.77;82.80;99776.41;5136074;27;19920;-68
2020/12/05 06:18:20;;;;;;;38.47;19.50;;;;;;;7.78;83.30;99789.19;5136240;27;20019;-68
2020/12/05 06:20:46;;;;;;;34.33;19.08;;;;;;;7.79;82.45;99785.19;5136320;27;20026;-68
2020/12/05 06:23:41;;;;;;;38.47;20.90;;;;;;;7.78;83.30;99783.59;5136211;27;20427;-68
2020/12/05 06:26:14;;;;;;;36.08;19.42;;;;;;;7.80;83.00;99786.78;5122530;27;20061;-61
2020/12/05 06:28:43;;;;;;;34.50;19.33;;;;;;;7.76;82.66;99781.19;5118052;27;20023;-68
2020/12/05 06:31:08;;;;;;;32.70;19.20;;;;;;;7.77;83.38;99793.19;5136257;27;20029;-68
2020/12/05 06:33:45;;;;;;;34.03;19.02;;;;;;;7.79;82.47;99794.38;5135728;27;20309;-70
2020/12/05 06:36:28;;;;;;;35.70;19.35;;;;;;;7.81;82.42;99799.59;5136130;27;20413;-70
2020/12/05 06:39:06;;;;;;;36.90;19.13;;;;;;;7.84;82.78;99798.78;5135207;27;20397;-62
2020/12/05 06:41:36;;;;;;;33.78;18.60;;;;;;;7.90;82.71;99802.78;5135930;27;20287;-70
2020/12/05 06:44:31;;;;;;;38.03;19.05;;;;;;;7.89;82.71;99790.78;5134023;27;20031;-68
2020/12/05 06:46:58;;;;;;;34.97;19.80;;;;;;;7.94;81.90;99800.78;5095642;28;20031;-67
2020/12/05 06:49:38;;;;;;;32.63;17.88;;;;;;;7.97;81.83;99797.22;5135847;27;20015;-63
2020/12/05 06:52:25;;;;;;;32.97;18.98;;;;;;;8.01;82.16;99804.41;5135933;27;20015;-65
2020/12/05 06:55:02;;;;;;;29.42;17.10;;;;;;;8.15;81.16;99808.38;5136008;27;20308;-62
2020/12/05 06:57:30;;;;;;;32.33;18.58;;;;;;;8.19;81.22;99809.97;5135935;27;20019;-67
2020/12/05 07:00:24;;;;;;;32.45;18.48;;;;;;;8.28;80.95;99821.59;5136009;27;20019;-69
2020/12/05 07:03:08;;;;;;;31.70;17.92;;;;;;;8.39;80.61;99812.41;5134594;27;20051;-68
2020/12/05 07:05:44;;;;;;;29.88;18.48;;;;;;;8.52;80.49;99822.00;5135649;27;20083;-63
2020/12/05 07:08:33;;;;;;;29.08;16.98;;;;;;;8.64;79.41;99819.56;5135692;28;20042;-62
2020/12/05 07:11:16;;;;;;;29.98;17.98;;;;;;;8.77;79.17;99819.94;5133305;28;20429;-64
2020/12/05 07:13:49;;;;;;;29.60;17.92;;;;;;;8.85;78.51;99813.09;5135469;27;20311;-62
2020/12/05 07:16:26;;;;;;;33.88;19.45;;;;;;;8.94;78.24;99816.28;5135668;27;20314;-61
2020/12/05 07:18:55;;;;;;;25.88;16.95;;;;;;;9.01;77.84;99821.03;5135446;27;20022;-62
2020/12/05 07:21:22;;;;;;;25.25;16.58;;;;;;;9.11;78.04;99831.44;5133045;28;20023;-62
2020/12/05 07:23:48;;;;;;;28.75;17.08;;;;;;;9.21;77.36;99824.97;5135489;27;20098;-63
2020/12/05 07:26:14;;;;;;;28.63;16.50;;;;;;;9.33;76.39;99832.16;5135473;27;20114;-62
2020/12/05 07:28:50;;;;;;;30.45;17.05;;;;;;;9.37;76.71;99835.72;5114754;27;20363;-62
2020/12/05 07:31:17;;;;;;;29.02;16.00;;;;;;;9.44;76.82;99830.09;5135120;27;20106;-63
2020/12/05 07:33:44;;;;;;;23.80;15.13;;;;;;;9.52;76.20;99837.25;5135442;27;20429;-62
2020/12/05 07:36:11;;;;;;;25.23;15.07;;;;;;;9.59;75.16;99836.44;5135604;28;20079;-62
2020/12/05 07:38:39;;;;;;;22.80;13.80;;;;;;;9.66;75.22;99832.78;5135284;28;20348;-62
2020/12/05 07:41:16;;;;;;;26.27;15.82;;;;;;;9.73;75.69;99838.34;5135320;27;20016;-61
2020/12/05 07:43:42;;;;;;;27.13;16.23;;;;;;;9.78;74.85;99835.09;5135338;27;20135;-63
2020/12/05 07:46:08;;;;;;;25.25;15.73;;;;;;;9.83;74.79;99837.47;5117146;28;20037;-62
2020/12/05 07:48:35;;;;;;;28.80;16.98;;;;;;;9.89;74.62;99841.44;5135104;27;20030;-65
2020/12/05 07:51:01;;;;;;;26.35;15.10;;;;;;;9.89;73.84;99842.25;5136269;27;20019;-62
2020/12/05 07:53:29;;;;;;;27.50;15.23;;;;;;;9.91;74.29;99850.25;5138862;27;20019;-67
2020/12/05 07:55:56;;;;;;;24.92;15.35;;;;;;;9.95;74.66;99844.63;5139214;27;20022;-63
2020/12/05 07:58:22;;;;;;;22.05;13.65;;;;;;;9.94;73.97;99855.03;5139003;27;20437;-68
2020/12/05 08:00:51;;;;;;;23.80;14.85;;;;;;;9.96;74.60;99852.63;5138993;27;20019;-62
2020/12/05 08:03:45;;;;;;;22.15;14.45;;;;;;;10.00;74.09;99856.19;5138792;27;20023;-62
2020/12/05 08:06:32;;;;;;;24.05;14.20;;;;;;;10.01;73.57;99871.84;5137752;27;20475;-62
2020/12/05 08:09:04;;;;;;;24.75;14.73;;;;;;;10.07;73.94;99855.34;5138752;27;20057;-61
2020/12/05 08:11:39;;;;;;;24.38;14.20;;;;;;;10.09;73.27;99859.34;5120385;27;20039;-62
2020/12/05 08:14:05;;;;;;;22.42;13.20;;;;;;;10.14;73.83;99858.91;5141361;27;20015;-61
2020/12/05 08:16:36;;;;;;;25.17;13.43;;;;;;;10.23;73.19;99871.72;5138782;27;20019;-61
2020/12/05 08:19:02;;;;;;;24.33;13.38;;;;;;;10.26;73.37;99866.06;5138597;27;20019;-62
2020/12/05 08:21:28;;;;;;;22.02;13.30;;;;;;;10.33;72.90;99873.63;5138675;27;20553;-62
2020/12/05 08:24:05;;;;;;;18.85;12.23;;;;;;;10.41;72.54;99880.81;5138507;27;20015;-63
2020/12/05 08:26:31;;;;;;;24.02;12.57;;;;;;;10.43;72.76;99872.78;5136953;27;20020;-62
2020/12/05 08:28:58;;;;;;;20.90;13.13;;;;;;;10.50;71.74;99864.28;5138355;27;20107;-62
2020/12/05 08:31:23;;;;;;;18.00;12.25;;;;;;;10.55;71.91;99857.41;5138376;27;20023;-63
2020/12/05 08:33:50;;;;;;;20.33;12.20;;;;;;;10.62;71.96;99858.13;5138332;27;20038;-68
2020/12/05 08:36:18;;;;;;;20.35;12.73;;;;;;;10.70;71.82;99842.00;5138431;27;20412;-69
2020/12/05 08:38:44;;;;;;;17.77;11.00;;;;;;;10.86;70.91;99847.06;5135860;27;20023;-69
2020/12/05 08:41:10;;;;;;;22.98;12.82;;;;;;;10.94;70.86;99838.09;5138195;27;20031;-67
2020/12/05 08:43:35;;;;;;;19.48;11.27;;;;;;;11.11;70.44;99851.19;5138344;27;20015;-68
2020/12/05 08:46:01;;;;;;;87.82;16.60;;;;;;;11.26;69.66;99843.38;5138279;27;20428;-69
2020/12/05 08:48:26;;;;;;;21.73;11.95;;;;;;;11.27;69.41;99856.22;5137975;27;20034;-68
2020/12/05 08:50:51;;;;;;;24.23;14.15;;;;;;;11.33;69.25;99848.91;5138170;27;20096;-68
2020/12/05 08:53:20;;;;;;;37.38;19.35;;;;;;;11.52;68.45;99872.00;5137817;27;20023;-68
2020/12/05 08:55:47;;;;;;;34.53;16.63;;;;;;;11.54;68.31;99852.69;5135567;27;20047;-61
2020/12/05 08:58:14;;;;;;;27.38;14.80;;;;;;;11.54;67.94;99858.31;5139953;27;20102;-67
2020/12/05 09:00:40;;;;;;;24.48;13.18;;;;;;;11.66;68.20;99843.66;5135609;27;20429;-67
2020/12/05 09:03:22;;;;;;;23.75;12.13;;;;;;;11.84;67.52;99838.63;5137544;27;20023;-68
2020/12/05 09:05:48;;;;;;;;;;;;;;;11.99;67.62;99828.72;5137976;27;20410;-67
2020/12/05 09:08:19;;;;;;;23.58;11.05;;;;;;;12.09;66.68;99838.22;5119615;27;19918;-62
2020/12/05 09:10:45;;;;;;;19.58;12.07;;;;;;;12.17;65.95;99845.34;5137733;27;20047;-61
2020/12/05 09:13:11;;;;;;;18.98;11.73;;;;;;;12.20;66.56;99833.22;5119272;27;20419;-69
2020/12/05 09:15:36;;;;;;;18.13;10.55;;;;;;;12.23;65.90;99843.63;5137476;27;20030;-69
2020/12/05 09:18:03;;;;;;;17.10;10.73;;;;;;;12.22;66.11;99827.94;5119185;27;20030;-68
2020/12/05 09:20:28;;;;;;;16.52;10.98;;;;;;;12.32;65.72;99837.44;5137688;27;20055;-67
2020/12/05 09:22:55;;;;;;;17.05;10.40;;;;;;;12.36;66.20;99835.38;5137630;27;20304;-67
2020/12/05 09:25:32;;;;;;;19.75;11.63;;;;;;;12.36;65.25;99824.09;5137154;27;20023;-68
2020/12/05 09:28:00;;;;;;;15.60;10.95;;;;;;;12.44;66.02;99834.03;5136486;27;20444;-67
2020/12/05 09:30:28;;;;;;;24.55;11.02;;;;;;;12.52;66.10;99845.97;5137301;27;20364;-67
2020/12/05 09:32:53;;;;;;;17.02;10.10;;;;;;;12.60;64.71;99834.16;5137321;27;20370;-66
2020/12/05 09:35:22;;;;;;;15.48;10.43;;;;;;;12.62;64.80;99831.69;5137315;27;20104;-67
2020/12/05 09:37:48;;;;;;;17.30;10.40;;;;;;;12.64;63.88;99843.34;5136997;27;20079;-68
2020/12/05 09:40:17;;;;;;;16.63;10.48;;;;;;;12.59;64.72;99826.09;5118722;27;20030;-67
2020/12/05 09:42:43;;;;;;;17.83;10.65;;;;;;;12.54;64.48;99829.41;5118764;27;20442;-67
2020/12/05 09:45:11;;;;;;;22.75;13.15;;;;;;;12.54;65.42;99835.84;5136968;27;20085;-67
2020/12/05 09:47:38;;;;;;;20.00;11.98;;;;;;;12.60;64.87;99820.06;5137004;27;20335;-67
2020/12/05 09:50:05;;;;;;;17.70;9.45;;;;;;;12.53;64.22;99828.63;5136026;27;20027;-67
2020/12/05 09:52:30;;;;;;;17.23;9.93;;;;;;;12.59;64.99;99826.91;5135992;27;20024;-67
2020/12/05 09:54:55;;;;;;;15.15;10.07;;;;;;;12.67;64.67;99821.94;5135843;27;20518;-67
2020/12/05 09:57:21;;;;;;;16.48;10.43;;;;;;;12.61;64.92;99832.94;5136205;27;20049;-62
2020/12/05 09:59:46;;;;;;;19.60;10.07;;;;;;;12.60;64.87;99828.53;5136423;27;20079;-63
2020/12/05 10:02:12;;;;;;;21.80;11.13;;;;;;;12.63;64.52;99829.69;5135942;27;20051;-63
2020/12/05 10:04:38;;;;;;;14.65;9.88;;;;;;;12.72;63.99;99837.56;5137870;27;20428;-66
2020/12/05 10:07:04;;;;;;;16.88;10.10;;;;;;;12.79;64.20;99835.41;5117701;27;20326;-65
2020/12/05 10:09:30;;;;;;;19.67;10.07;;;;;;;12.82;63.92;99836.56;5117532;27;20038;-61
2020/12/05 10:11:55;;;;;;;17.80;11.40;;;;;;;12.76;63.32;99827.00;5135847;27;20102;-65
2020/12/05 10:14:21;;;;;;;22.83;12.07;;;;;;;12.80;62.57;99824.91;5135779;27;20038;-66
2020/12/05 10:16:46;;;;;;;24.77;13.70;;;;;;;12.79;64.20;99814.88;5136477;27;20023;-68
2020/12/05 10:19:12;;;;;;;15.45;10.10;;;;;;;12.81;64.06;99812.41;5136385;27;20034;-65
2020/12/05 10:21:37;;;;;;;16.92;8.55;;;;;;;12.89;63.48;99823.16;5135730;27;20118;-63
2020/12/05 10:24:03;;;;;;;17.05;10.70;;;;;;;13.00;62.63;99811.63;5135283;27;20314;-66
2020/12/05 10:26:28;;;;;;;17.30;9.60;;;;;;;13.01;62.90;99816.06;5135297;27;20015;-65
2020/12/05 10:28:54;;;;;;;12.75;8.40;;;;;;;13.03;61.94;99822.06;5135762;27;20023;-66
2020/12/05 10:31:19;;;;;;;18.77;10.02;;;;;;;13.05;62.42;99825.25;5135846;27;20019;-65
2020/12/05 10:33:44;;;;;;;13.60;8.93;;;;;;;13.07;62.02;99831.25;5135997;27;20126;-66
2020/12/05 10:36:10;;;;;;;13.32;8.85;;;;;;;13.11;62.58;99812.22;5135678;27;20031;-65
2020/12/05 10:38:35;;;;;;;17.48;10.77;;;;;;;13.14;61.63;99827.47;5135367;27;20019;-65
2020/12/05 10:41:01;;;;;;;17.67;9.90;;;;;;;13.27;62.29;99820.00;5135924;27;20012;-65
2020/12/05 10:43:26;;;;;;;19.20;11.10;;;;;;;13.33;62.40;99823.09;5135831;27;20011;-64
2020/12/05 10:45:52;;;;;;;16.85;10.30;;;;;;;13.29;61.49;99852.19;5135982;27;20023;-65
2020/12/05 10:48:17;;;;;;;18.27;12.05;;;;;;;13.13;61.84;99832.31;5135896;27;20061;-66
2020/12/05 10:50:42;;;;;;;17.85;10.68;;;;;;;13.04;61.64;99834.94;5135365;27;20457;-65
2020/12/05 10:53:08;;;;;;;13.10;8.93;;;;;;;12.97;62.27;99818.94;5117373;27;20398;-65
2020/12/05 10:55:33;;;;;;;14.45;9.45;;;;;;;12.88;62.43;99834.84;5135807;27;20019;-65
2020/12/05 10:57:58;;;;;;;13.23;9.48;;;;;;;12.82;62.63;99816.81;5135869;27;20067;-65
2020/12/05 11:00:24;;;;;;;14.55;9.32;;;;;;;12.79;63.12;99826.94;5135340;27;20015;-66
2020/12/05 11:02:49;;;;;;;16.05;9.82;;;;;;;12.80;64.10;99805.19;5135893;28;20022;-65
2020/12/05 11:05:15;;;;;;;14.70;9.57;;;;;;;12.95;63.56;99815.78;5135392;28;20303;-66
2020/12/05 11:07:41;;;;;;;14.60;9.02;;;;;;;13.15;63.61;99824.25;5134916;27;20094;-66
2020/12/05 11:10:06;;;;;;;14.00;9.48;;;;;;;13.30;62.31;99810.66;5135524;27;20122;-66
2020/12/05 11:12:31;;;;;;;12.00;8.38;;;;;;;13.52;61.82;99813.81;5135463;28;20139;-65
2020/12/05 11:14:57;;;;;;;15.02;9.85;;;;;;;13.57;61.92;99804.81;5135831;28;20030;-66
2020/12/05 11:17:22;;;;;;;14.57;8.43;;;;;;;13.64;60.75;99807.47;5135906;28;20031;-61
2020/12/05 11:19:48;;;;;;;13.00;8.77;;;;;;;13.73;61.19;99807.69;5134469;27;20323;-64
2020/12/05 11:22:13;;;;;;;14.60;8.45;;;;;;;13.87;61.64;99807.34;5131386;27;20046;-65
2020/12/05 11:24:38;;;;;;;12.77;8.15;;;;;;;13.96;59.54;99801.09;5134356;27;20027;-63
2020/12/05 11:27:04;;;;;;;13.18;8.73;;;;;;;14.04;60.09;99798.91;5138723;27;20407;-64
2020/12/05 11:29:29;;;;;;;10.15;6.93;;;;;;;14.12;59.83;99789.81;5137797;27;20466;-65